Terminal Aerodrome Forecast
Issued by NWS Amarillo, TX

Home | Current Version | Previous Version | Text Only | Print | Product List | Glossary On
Versions: 1 2 3 4 5 6 7 8 9 10 11 12 13 14 15 16 17
273
FTUS44 KAMA 271734
TAFDHT
TAF
KDHT 271734Z 2718/2818 VRB06KT P6SM SKC
     FM272100 16014KT P6SM SKC
     FM280800 14014KT P6SM BKN010
     FM281300 14012KT P6SM -RA BKN040=

USA.gov is the U.S. government's official web portal to all federal, state and local government web resources and services.